sensor_id;sensor_type;location;lat;lon;timestamp;temperature;humidity
65692;DHT22;52411;52.716;6.696;2022-09-02T00:01:15;14.60;96.50
65692;DHT22;52411;52.716;6.696;2022-09-02T00:03:41;14.60;97.90
65692;DHT22;52411;52.716;6.696;2022-09-02T00:06:07;14.50;96.70
65692;DHT22;52411;52.716;6.696;2022-09-02T00:08:33;14.50;97.00
65692;DHT22;52411;52.716;6.696;2022-09-02T00:11:01;14.40;97.60
65692;DHT22;52411;52.716;6.696;2022-09-02T00:13:28;14.40;97.30
65692;DHT22;52411;52.716;6.696;2022-09-02T00:15:54;14.40;97.50
65692;DHT22;52411;52.716;6.696;2022-09-02T00:18:20;14.30;97.90
65692;DHT22;52411;52.716;6.696;2022-09-02T00:20:47;14.30;97.20
65692;DHT22;52411;52.716;6.696;2022-09-02T00:23:14;14.30;97.60
65692;DHT22;52411;52.716;6.696;2022-09-02T00:25:41;14.30;97.40
65692;DHT22;52411;52.716;6.696;2022-09-02T00:28:09;14.20;97.70
65692;DHT22;52411;52.716;6.696;2022-09-02T00:30:36;14.20;97.60
65692;DHT22;52411;52.716;6.696;2022-09-02T00:33:02;14.20;97.90
65692;DHT22;52411;52.716;6.696;2022-09-02T00:35:28;14.20;98.40
65692;DHT22;52411;52.716;6.696;2022-09-02T00:37:54;14.10;98.10
65692;DHT22;52411;52.716;6.696;2022-09-02T00:40:19;14.10;98.00
65692;DHT22;52411;52.716;6.696;2022-09-02T00:42:45;14.10;98.10
65692;DHT22;52411;52.716;6.696;2022-09-02T00:45:12;14.10;98.30
65692;DHT22;52411;52.716;6.696;2022-09-02T00:47:37;14.10;98.90
65692;DHT22;52411;52.716;6.696;2022-09-02T00:50:09;14.00;98.30
65692;DHT22;52411;52.716;6.696;2022-09-02T00:52:48;14.00;99.80
65692;DHT22;52411;52.716;6.696;2022-09-02T00:55:21;14.00;99.70
65692;DHT22;52411;52.716;6.696;2022-09-02T00:57:57;14.00;99.30
65692;DHT22;52411;52.716;6.696;2022-09-02T01:00:28;14.00;99.70
65692;DHT22;52411;52.716;6.696;2022-09-02T01:02:57;14.00;99.90
65692;DHT22;52411;52.716;6.696;2022-09-02T01:05:26;13.90;99.90
65692;DHT22;52411;52.716;6.696;2022-09-02T01:07:54;13.90;99.80
65692;DHT22;52411;52.716;6.696;2022-09-02T01:10:23;13.90;99.70
65692;DHT22;52411;52.716;6.696;2022-09-02T01:12:57;13.90;99.90
65692;DHT22;52411;52.716;6.696;2022-09-02T01:15:23;13.80;99.60
65692;DHT22;52411;52.716;6.696;2022-09-02T01:17:50;13.80;99.50
65692;DHT22;52411;52.716;6.696;2022-09-02T01:20:20;13.70;99.50
65692;DHT22;52411;52.716;6.696;2022-09-02T01:22:46;13.70;99.90
65692;DHT22;52411;52.716;6.696;2022-09-02T01:25:21;13.70;99.80
65692;DHT22;52411;52.716;6.696;2022-09-02T01:27:47;13.70;99.90
65692;DHT22;52411;52.716;6.696;2022-09-02T01:30:20;13.70;99.90
65692;DHT22;52411;52.716;6.696;2022-09-02T01:32:46;13.70;99.90
65692;DHT22;52411;52.716;6.696;2022-09-02T01:35:12;13.70;99.90
65692;DHT22;52411;52.716;6.696;2022-09-02T01:37:38;13.60;99.90
65692;DHT22;52411;52.716;6.696;2022-09-02T01:40:09;13.60;99.90
65692;DHT22;52411;52.716;6.696;2022-09-02T01:42:35;13.50;99.90
65692;DHT22;52411;52.716;6.696;2022-09-02T01:45:02;13.50;99.90
65692;DHT22;52411;52.716;6.696;2022-09-02T01:47:28;13.50;99.90
65692;DHT22;52411;52.716;6.696;2022-09-02T01:49:54;13.50;99.90
65692;DHT22;52411;52.716;6.696;2022-09-02T01:52:22;13.40;99.90
65692;DHT22;52411;52.716;6.696;2022-09-02T01:54:47;13.40;99.90
65692;DHT22;52411;52.716;6.696;2022-09-02T01:57:13;13.40;99.90
65692;DHT22;52411;52.716;6.696;2022-09-02T01:59:39;13.30;99.90
65692;DHT22;52411;52.716;6.696;2022-09-02T02:02:06;13.30;99.90
65692;DHT22;52411;52.716;6.696;2022-09-02T02:04:32;13.30;99.90
65692;DHT22;52411;52.716;6.696;2022-09-02T02:06:58;13.30;99.90
65692;DHT22;52411;52.716;6.696;2022-09-02T02:09:24;13.30;99.90
65692;DHT22;52411;52.716;6.696;2022-09-02T02:11:50;13.20;99.90
65692;DHT22;52411;52.716;6.696;2022-09-02T02:14:16;13.20;99.90
65692;DHT22;52411;52.716;6.696;2022-09-02T02:16:42;13.10;99.90
65692;DHT22;52411;52.716;6.696;2022-09-02T02:19:07;13.10;99.90
65692;DHT22;52411;52.716;6.696;2022-09-02T02:21:33;13.00;99.90
65692;DHT22;52411;52.716;6.696;2022-09-02T02:23:59;13.00;99.90
65692;DHT22;52411;52.716;6.696;2022-09-02T02:26:28;13.00;99.90
65692;DHT22;52411;52.716;6.696;2022-09-02T02:28:54;13.00;99.90
65692;DHT22;52411;52.716;6.696;2022-09-02T02:31:20;13.00;99.90
65692;DHT22;52411;52.716;6.696;2022-09-02T02:33:45;13.00;99.90
65692;DHT22;52411;52.716;6.696;2022-09-02T02:36:12;12.90;99.90
65692;DHT22;52411;52.716;6.696;2022-09-02T02:38:39;12.90;99.90
65692;DHT22;52411;52.716;6.696;2022-09-02T02:41:06;12.90;99.90
65692;DHT22;52411;52.716;6.696;2022-09-02T02:43:33;12.90;99.90
65692;DHT22;52411;52.716;6.696;2022-09-02T02:45:58;12.80;99.90
65692;DHT22;52411;52.716;6.696;2022-09-02T02:48:24;12.90;99.90
65692;DHT22;52411;52.716;6.696;2022-09-02T02:50:50;12.80;99.90
65692;DHT22;52411;52.716;6.696;2022-09-02T02:53:16;12.80;99.90
65692;DHT22;52411;52.716;6.696;2022-09-02T02:55:42;12.80;99.90
65692;DHT22;52411;52.716;6.696;2022-09-02T02:58:08;12.70;99.90
65692;DHT22;52411;52.716;6.696;2022-09-02T03:00:34;12.70;99.90
65692;DHT22;52411;52.716;6.696;2022-09-02T03:03:05;12.60;99.90
65692;DHT22;52411;52.716;6.696;2022-09-02T03:05:31;12.60;99.90
65692;DHT22;52411;52.716;6.696;2022-09-02T03:07:58;12.50;99.90
65692;DHT22;52411;52.716;6.696;2022-09-02T03:10:25;12.50;99.90
65692;DHT22;52411;52.716;6.696;2022-09-02T03:12:51;12.50;99.90
65692;DHT22;52411;52.716;6.696;2022-09-02T03:15:18;12.40;99.90
65692;DHT22;52411;52.716;6.696;2022-09-02T03:17:45;12.40;99.90
65692;DHT22;52411;52.716;6.696;2022-09-02T03:20:13;12.40;99.90
65692;DHT22;52411;52.716;6.696;2022-09-02T03:22:44;12.40;99.90
65692;DHT22;52411;52.716;6.696;2022-09-02T03:25:14;12.40;99.90
65692;DHT22;52411;52.716;6.696;2022-09-02T03:27:41;12.40;99.90
65692;DHT22;52411;52.716;6.696;2022-09-02T03:30:13;12.40;99.90
65692;DHT22;52411;52.716;6.696;2022-09-02T03:32:40;12.40;99.90
65692;DHT22;52411;52.716;6.696;2022-09-02T03:35:08;12.40;99.90
65692;DHT22;52411;52.716;6.696;2022-09-02T03:37:35;12.40;99.90
65692;DHT22;52411;52.716;6.696;2022-09-02T03:40:04;12.40;99.90
65692;DHT22;52411;52.716;6.696;2022-09-02T03:42:30;12.30;99.90
65692;DHT22;52411;52.716;6.696;2022-09-02T03:44:56;12.30;99.90
65692;DHT22;52411;52.716;6.696;2022-09-02T03:47:21;12.30;99.90
65692;DHT22;52411;52.716;6.696;2022-09-02T03:49:48;12.30;99.90
65692;DHT22;52411;52.716;6.696;2022-09-02T03:52:13;12.20;99.90
65692;DHT22;52411;52.716;6.696;2022-09-02T03:54:39;12.20;99.90
65692;DHT22;52411;52.716;6.696;2022-09-02T03:57:05;12.20;99.90
65692;DHT22;52411;52.716;6.696;2022-09-02T03:59:30;12.10;99.90
65692;DHT22;52411;52.716;6.696;2022-09-02T04:01:56;12.10;99.90
65692;DHT22;52411;52.716;6.696;2022-09-02T04:04:21;12.10;99.90
65692;DHT22;52411;52.716;6.696;2022-09-02T04:06:47;12.00;99.90
65692;DHT22;52411;52.716;6.696;2022-09-02T04:09:13;12.00;99.90
65692;DHT22;52411;52.716;6.696;2022-09-02T04:11:39;12.00;99.90
65692;DHT22;52411;52.716;6.696;2022-09-02T04:14:07;11.90;99.90
65692;DHT22;52411;52.716;6.696;2022-09-02T04:16:34;11.90;99.90
65692;DHT22;52411;52.716;6.696;2022-09-02T04:19:00;11.90;99.90
65692;DHT22;52411;52.716;6.696;2022-09-02T04:21:28;11.90;99.90
65692;DHT22;52411;52.716;6.696;2022-09-02T04:23:55;11.90;99.90
65692;DHT22;52411;52.716;6.696;2022-09-02T04:26:20;11.90;99.90
65692;DHT22;52411;52.716;6.696;2022-09-02T04:28:47;11.90;99.90
65692;DHT22;52411;52.716;6.696;2022-09-02T04:31:17;11.90;99.90
65692;DHT22;52411;52.716;6.696;2022-09-02T04:33:44;11.90;99.90
65692;DHT22;52411;52.716;6.696;2022-09-02T04:36:12;11.90;99.90
65692;DHT22;52411;52.716;6.696;2022-09-02T04:38:38;11.90;99.90
65692;DHT22;52411;52.716;6.696;2022-09-02T04:41:09;11.80;99.90
65692;DHT22;52411;52.716;6.696;2022-09-02T04:43:35;11.80;99.90
65692;DHT22;52411;52.716;6.696;2022-09-02T04:46:04;11.80;99.90
65692;DHT22;52411;52.716;6.696;2022-09-02T04:48:31;11.80;99.90
65692;DHT22;52411;52.716;6.696;2022-09-02T04:50:57;11.80;99.90
65692;DHT22;52411;52.716;6.696;2022-09-02T04:53:22;11.80;99.90
65692;DHT22;52411;52.716;6.696;2022-09-02T04:55:48;11.80;99.90
65692;DHT22;52411;52.716;6.696;2022-09-02T04:58:14;11.80;99.90
65692;DHT22;52411;52.716;6.696;2022-09-02T05:00:41;11.80;99.90
65692;DHT22;52411;52.716;6.696;2022-09-02T05:03:06;11.80;99.90
65692;DHT22;52411;52.716;6.696;2022-09-02T05:05:33;11.80;99.90
65692;DHT22;52411;52.716;6.696;2022-09-02T05:07:59;11.80;99.90
65692;DHT22;52411;52.716;6.696;2022-09-02T05:10:29;11.80;99.90
65692;DHT22;52411;52.716;6.696;2022-09-02T05:12:56;11.80;99.90
65692;DHT22;52411;52.716;6.696;2022-09-02T05:15:22;11.90;99.90
65692;DHT22;52411;52.716;6.696;2022-09-02T05:17:48;11.90;99.90
65692;DHT22;52411;52.716;6.696;2022-09-02T05:20:14;11.90;99.90
65692;DHT22;52411;52.716;6.696;2022-09-02T05:22:39;12.00;99.90
65692;DHT22;52411;52.716;6.696;2022-09-02T05:25:06;12.00;99.90
65692;DHT22;52411;52.716;6.696;2022-09-02T05:27:34;12.00;99.90
65692;DHT22;52411;52.716;6.696;2022-09-02T05:30:01;12.10;99.90
65692;DHT22;52411;52.716;6.696;2022-09-02T05:32:27;12.10;99.90
65692;DHT22;52411;52.716;6.696;2022-09-02T05:34:54;12.10;99.90
65692;DHT22;52411;52.716;6.696;2022-09-02T05:37:20;12.20;99.90
65692;DHT22;52411;52.716;6.696;2022-09-02T05:39:46;12.20;99.90
65692;DHT22;52411;52.716;6.696;2022-09-02T05:42:12;12.30;99.90
65692;DHT22;52411;52.716;6.696;2022-09-02T05:44:38;12.40;99.90
65692;DHT22;52411;52.716;6.696;2022-09-02T05:47:04;12.50;99.90
65692;DHT22;52411;52.716;6.696;2022-09-02T05:49:30;12.50;99.90
65692;DHT22;52411;52.716;6.696;2022-09-02T05:51:58;12.60;99.90
65692;DHT22;52411;52.716;6.696;2022-09-02T05:54:33;12.60;99.90
65692;DHT22;52411;52.716;6.696;2022-09-02T05:57:04;12.70;99.90
65692;DHT22;52411;52.716;6.696;2022-09-02T05:59:30;12.80;99.90
65692;DHT22;52411;52.716;6.696;2022-09-02T06:01:57;12.80;99.90
65692;DHT22;52411;52.716;6.696;2022-09-02T06:04:24;12.90;99.90
65692;DHT22;52411;52.716;6.696;2022-09-02T06:06:50;12.90;99.90
65692;DHT22;52411;52.716;6.696;2022-09-02T06:09:20;13.00;99.90
65692;DHT22;52411;52.716;6.696;2022-09-02T06:11:47;13.10;99.90
65692;DHT22;52411;52.716;6.696;2022-09-02T06:14:18;13.20;99.90
65692;DHT22;52411;52.716;6.696;2022-09-02T06:16:43;13.20;99.90
65692;DHT22;52411;52.716;6.696;2022-09-02T06:19:10;13.30;99.90
65692;DHT22;52411;52.716;6.696;2022-09-02T06:21:36;13.50;99.90
65692;DHT22;52411;52.716;6.696;2022-09-02T06:24:07;13.50;99.90
65692;DHT22;52411;52.716;6.696;2022-09-02T06:26:33;13.60;99.90
65692;DHT22;52411;52.716;6.696;2022-09-02T06:29:00;13.70;99.90
65692;DHT22;52411;52.716;6.696;2022-09-02T06:31:25;13.80;99.90
65692;DHT22;52411;52.716;6.696;2022-09-02T06:33:53;13.90;99.90
65692;DHT22;52411;52.716;6.696;2022-09-02T06:36:19;14.00;99.90
65692;DHT22;52411;52.716;6.696;2022-09-02T06:38:47;14.10;99.90
65692;DHT22;52411;52.716;6.696;2022-09-02T06:41:16;14.20;99.90
65692;DHT22;52411;52.716;6.696;2022-09-02T06:43:42;14.30;99.90
65692;DHT22;52411;52.716;6.696;2022-09-02T06:46:18;14.40;99.90
65692;DHT22;52411;52.716;6.696;2022-09-02T06:48:45;14.40;99.90
65692;DHT22;52411;52.716;6.696;2022-09-02T06:51:42;14.50;99.90
65692;DHT22;52411;52.716;6.696;2022-09-02T06:54:11;14.60;99.90
65692;DHT22;52411;52.716;6.696;2022-09-02T06:56:37;14.70;99.90
65692;DHT22;52411;52.716;6.696;2022-09-02T06:59:04;14.80;99.90
65692;DHT22;52411;52.716;6.696;2022-09-02T07:01:30;14.90;99.90
65692;DHT22;52411;52.716;6.696;2022-09-02T07:03:57;15.00;99.90
65692;DHT22;52411;52.716;6.696;2022-09-02T07:06:47;15.10;99.90
65692;DHT22;52411;52.716;6.696;2022-09-02T07:09:16;15.20;99.90
65692;DHT22;52411;52.716;6.696;2022-09-02T07:11:42;15.30;99.90
65692;DHT22;52411;52.716;6.696;2022-09-02T07:14:16;15.50;99.90
65692;DHT22;52411;52.716;6.696;2022-09-02T07:16:45;15.50;99.90
65692;DHT22;52411;52.716;6.696;2022-09-02T07:19:11;15.70;99.90
65692;DHT22;52411;52.716;6.696;2022-09-02T07:21:38;15.80;99.90
65692;DHT22;52411;52.716;6.696;2022-09-02T07:24:07;15.90;99.90
65692;DHT22;52411;52.716;6.696;2022-09-02T07:26:33;16.00;99.90
65692;DHT22;52411;52.716;6.696;2022-09-02T07:28:59;16.10;99.90
65692;DHT22;52411;52.716;6.696;2022-09-02T07:31:25;16.20;99.90
65692;DHT22;52411;52.716;6.696;2022-09-02T07:33:55;16.30;99.90
65692;DHT22;52411;52.716;6.696;2022-09-02T07:36:25;16.30;99.90
65692;DHT22;52411;52.716;6.696;2022-09-02T07:38:51;16.50;99.90
65692;DHT22;52411;52.716;6.696;2022-09-02T07:41:18;16.60;99.90
65692;DHT22;52411;52.716;6.696;2022-09-02T07:43:45;16.70;99.90
65692;DHT22;52411;52.716;6.696;2022-09-02T07:46:12;16.80;99.90
65692;DHT22;52411;52.716;6.696;2022-09-02T07:48:38;16.90;99.90
65692;DHT22;52411;52.716;6.696;2022-09-02T07:51:04;17.00;99.90
65692;DHT22;52411;52.716;6.696;2022-09-02T07:53:31;17.10;99.90
65692;DHT22;52411;52.716;6.696;2022-09-02T07:55:58;17.20;99.90
65692;DHT22;52411;52.716;6.696;2022-09-02T07:58:24;17.30;99.90
65692;DHT22;52411;52.716;6.696;2022-09-02T08:00:51;17.40;99.90
65692;DHT22;52411;52.716;6.696;2022-09-02T08:03:17;17.50;99.90
65692;DHT22;52411;52.716;6.696;2022-09-02T08:05:44;17.60;99.20
65692;DHT22;52411;52.716;6.696;2022-09-02T08:08:16;17.70;99.40
65692;DHT22;52411;52.716;6.696;2022-09-02T08:10:46;17.80;99.40
65692;DHT22;52411;52.716;6.696;2022-09-02T08:13:12;18.10;99.10
65692;DHT22;52411;52.716;6.696;2022-09-02T08:15:38;18.60;98.60
65692;DHT22;52411;52.716;6.696;2022-09-02T08:18:06;19.20;97.70
65692;DHT22;52411;52.716;6.696;2022-09-02T08:20:32;19.40;97.40
65692;DHT22;52411;52.716;6.696;2022-09-02T08:22:57;19.40;97.20
65692;DHT22;52411;52.716;6.696;2022-09-02T08:25:24;19.30;96.90
65692;DHT22;52411;52.716;6.696;2022-09-02T08:27:49;19.20;96.90
65692;DHT22;52411;52.716;6.696;2022-09-02T08:30:15;19.20;97.00
65692;DHT22;52411;52.716;6.696;2022-09-02T08:32:41;19.20;97.00
65692;DHT22;52411;52.716;6.696;2022-09-02T08:35:08;19.20;96.80
65692;DHT22;52411;52.716;6.696;2022-09-02T08:37:34;19.20;97.00
65692;DHT22;52411;52.716;6.696;2022-09-02T08:40:01;19.80;96.50
65692;DHT22;52411;52.716;6.696;2022-09-02T08:42:38;19.90;96.10
65692;DHT22;52411;52.716;6.696;2022-09-02T08:45:12;20.10;96.00
65692;DHT22;52411;52.716;6.696;2022-09-02T08:47:40;20.20;95.50
65692;DHT22;52411;52.716;6.696;2022-09-02T08:50:17;20.30;94.60
65692;DHT22;52411;52.716;6.696;2022-09-02T08:52:54;20.50;94.20
65692;DHT22;52411;52.716;6.696;2022-09-02T08:55:25;20.70;93.90
65692;DHT22;52411;52.716;6.696;2022-09-02T08:57:53;20.80;93.60
65692;DHT22;52411;52.716;6.696;2022-09-02T09:00:21;20.90;93.10
65692;DHT22;52411;52.716;6.696;2022-09-02T09:03:42;20.80;93.40
65692;DHT22;52411;52.716;6.696;2022-09-02T09:06:18;20.70;92.10
65692;DHT22;52411;52.716;6.696;2022-09-02T09:09:02;20.60;92.60
65692;DHT22;52411;52.716;6.696;2022-09-02T09:14:17;20.70;92.20
65692;DHT22;52411;52.716;6.696;2022-09-02T09:17:09;20.80;91.90
65692;DHT22;52411;52.716;6.696;2022-09-02T09:19:48;20.80;92.30
65692;DHT22;52411;52.716;6.696;2022-09-02T09:22:18;20.90;92.40
65692;DHT22;52411;52.716;6.696;2022-09-02T09:24:49;20.90;91.80
65692;DHT22;52411;52.716;6.696;2022-09-02T09:27:17;21.00;91.40
65692;DHT22;52411;52.716;6.696;2022-09-02T09:29:44;21.10;92.20
65692;DHT22;52411;52.716;6.696;2022-09-02T09:32:25;21.20;92.00
65692;DHT22;52411;52.716;6.696;2022-09-02T09:37:40;21.20;91.70
65692;DHT22;52411;52.716;6.696;2022-09-02T09:45:44;21.40;90.30
65692;DHT22;52411;52.716;6.696;2022-09-02T09:48:18;21.50;88.50
65692;DHT22;52411;52.716;6.696;2022-09-02T09:50:45;21.60;90.00
65692;DHT22;52411;52.716;6.696;2022-09-02T09:53:19;21.70;90.10
65692;DHT22;52411;52.716;6.696;2022-09-02T09:58:17;21.80;86.90
65692;DHT22;52411;52.716;6.696;2022-09-02T10:00:43;21.90;89.20
65692;DHT22;52411;52.716;6.696;2022-09-02T10:03:20;22.00;88.90
65692;DHT22;52411;52.716;6.696;2022-09-02T10:05:46;22.10;85.70
65692;DHT22;52411;52.716;6.696;2022-09-02T10:11:00;22.30;83.90
65692;DHT22;52411;52.716;6.696;2022-09-02T10:13:31;22.30;83.50
65692;DHT22;52411;52.716;6.696;2022-09-02T10:21:16;22.60;82.40
65692;DHT22;52411;52.716;6.696;2022-09-02T10:24:10;22.70;79.40
65692;DHT22;52411;52.716;6.696;2022-09-02T10:26:45;22.80;80.10
65692;DHT22;52411;52.716;6.696;2022-09-02T10:42:34;23.20;76.30
65692;DHT22;52411;52.716;6.696;2022-09-02T10:47:39;23.30;79.30
65692;DHT22;52411;52.716;6.696;2022-09-02T10:55:56;23.40;78.80
65692;DHT22;52411;52.716;6.696;2022-09-02T11:01:46;23.40;79.20
65692;DHT22;52411;52.716;6.696;2022-09-02T11:04:22;23.60;78.80
65692;DHT22;52411;52.716;6.696;2022-09-02T11:06:54;23.80;76.50
65692;DHT22;52411;52.716;6.696;2022-09-02T11:09:46;23.80;74.00
65692;DHT22;52411;52.716;6.696;2022-09-02T11:12:17;23.80;68.50
65692;DHT22;52411;52.716;6.696;2022-09-02T11:20:30;23.90;74.70
65692;DHT22;52411;52.716;6.696;2022-09-02T11:26:10;24.00;69.00
65692;DHT22;52411;52.716;6.696;2022-09-02T11:28:54;24.20;69.60
65692;DHT22;52411;52.716;6.696;2022-09-02T11:31:34;24.30;67.40
65692;DHT22;52411;52.716;6.696;2022-09-02T11:36:50;24.60;65.10
65692;DHT22;52411;52.716;6.696;2022-09-02T11:45:26;24.80;68.30
65692;DHT22;52411;52.716;6.696;2022-09-02T11:48:07;24.70;66.10
65692;DHT22;52411;52.716;6.696;2022-09-02T11:53:31;24.90;65.10
65692;DHT22;52411;52.716;6.696;2022-09-02T11:56:18;25.00;62.90
65692;DHT22;52411;52.716;6.696;2022-09-02T11:58:47;25.00;62.80
65692;DHT22;52411;52.716;6.696;2022-09-02T12:03:42;25.10;63.30
65692;DHT22;52411;52.716;6.696;2022-09-02T12:06:13;25.20;63.00
65692;DHT22;52411;52.716;6.696;2022-09-02T12:11:08;25.00;63.70
65692;DHT22;52411;52.716;6.696;2022-09-02T12:13:39;25.10;62.20
65692;DHT22;52411;52.716;6.696;2022-09-02T12:18:38;25.30;63.00
65692;DHT22;52411;52.716;6.696;2022-09-02T12:21:12;25.20;63.90
65692;DHT22;52411;52.716;6.696;2022-09-02T12:28:51;25.30;60.90
65692;DHT22;52411;52.716;6.696;2022-09-02T12:36:54;25.50;58.80
65692;DHT22;52411;52.716;6.696;2022-09-02T12:42:15;25.50;58.20
65692;DHT22;52411;52.716;6.696;2022-09-02T12:45:02;25.50;57.60
65692;DHT22;52411;52.716;6.696;2022-09-02T12:50:15;25.70;58.70
65692;DHT22;52411;52.716;6.696;2022-09-02T12:52:47;25.60;56.20
65692;DHT22;52411;52.716;6.696;2022-09-02T12:55:23;25.40;56.80
65692;DHT22;52411;52.716;6.696;2022-09-02T12:58:05;25.50;56.70
65692;DHT22;52411;52.716;6.696;2022-09-02T13:44:20;26.80;53.30
65692;DHT22;52411;52.716;6.696;2022-09-02T13:46:51;27.10;52.90
65692;DHT22;52411;52.716;6.696;2022-09-02T13:49:23;26.90;51.70
65692;DHT22;52411;52.716;6.696;2022-09-02T13:51:52;26.90;52.80
65692;DHT22;52411;52.716;6.696;2022-09-02T13:54:35;26.80;51.60
65692;DHT22;52411;52.716;6.696;2022-09-02T13:57:05;26.80;51.00
65692;DHT22;52411;52.716;6.696;2022-09-02T13:59:33;26.80;52.00
65692;DHT22;52411;52.716;6.696;2022-09-02T14:01:59;26.80;52.10
65692;DHT22;52411;52.716;6.696;2022-09-02T14:04:39;26.70;51.20
65692;DHT22;52411;52.716;6.696;2022-09-02T14:07:06;26.40;51.20
65692;DHT22;52411;52.716;6.696;2022-09-02T14:09:34;26.10;50.60
65692;DHT22;52411;52.716;6.696;2022-09-02T14:12:02;25.90;51.70
65692;DHT22;52411;52.716;6.696;2022-09-02T14:14:28;25.70;52.00
65692;DHT22;52411;52.716;6.696;2022-09-02T14:17:17;25.60;52.60
65692;DHT22;52411;52.716;6.696;2022-09-02T14:19:44;25.40;51.20
65692;DHT22;52411;52.716;6.696;2022-09-02T14:22:27;25.50;52.80
65692;DHT22;52411;52.716;6.696;2022-09-02T14:24:53;25.80;50.40
65692;DHT22;52411;52.716;6.696;2022-09-02T14:27:22;26.10;52.70
65692;DHT22;52411;52.716;6.696;2022-09-02T14:29:56;26.10;52.20
65692;DHT22;52411;52.716;6.696;2022-09-02T14:32:24;26.00;50.60
65692;DHT22;52411;52.716;6.696;2022-09-02T14:37:52;25.80;51.00
65692;DHT22;52411;52.716;6.696;2022-09-02T14:40:37;25.90;51.60
65692;DHT22;52411;52.716;6.696;2022-09-02T14:43:03;26.20;49.10
65692;DHT22;52411;52.716;6.696;2022-09-02T14:45:35;26.50;52.70
65692;DHT22;52411;52.716;6.696;2022-09-02T14:48:09;26.60;51.80
65692;DHT22;52411;52.716;6.696;2022-09-02T14:50:35;26.50;49.90
65692;DHT22;52411;52.716;6.696;2022-09-02T14:53:07;26.40;51.40
65692;DHT22;52411;52.716;6.696;2022-09-02T14:58:11;26.30;50.20
65692;DHT22;52411;52.716;6.696;2022-09-02T15:00:36;26.10;51.80
65692;DHT22;52411;52.716;6.696;2022-09-02T15:03:04;26.10;51.80
65692;DHT22;52411;52.716;6.696;2022-09-02T15:05:31;26.10;51.70
65692;DHT22;52411;52.716;6.696;2022-09-02T15:07:57;26.00;52.10
65692;DHT22;52411;52.716;6.696;2022-09-02T15:10:23;26.00;51.80
65692;DHT22;52411;52.716;6.696;2022-09-02T15:12:53;26.40;51.40
65692;DHT22;52411;52.716;6.696;2022-09-02T15:15:19;27.10;51.00
65692;DHT22;52411;52.716;6.696;2022-09-02T15:17:45;27.40;50.20
65692;DHT22;52411;52.716;6.696;2022-09-02T15:20:11;27.20;49.80
65692;DHT22;52411;52.716;6.696;2022-09-02T15:22:37;27.10;49.80
65692;DHT22;52411;52.716;6.696;2022-09-02T15:25:04;27.00;50.10
65692;DHT22;52411;52.716;6.696;2022-09-02T15:27:32;26.80;49.80
65692;DHT22;52411;52.716;6.696;2022-09-02T15:29:59;26.50;49.90
65692;DHT22;52411;52.716;6.696;2022-09-02T15:32:26;26.40;50.00
65692;DHT22;52411;52.716;6.696;2022-09-02T15:34:52;26.30;50.50
65692;DHT22;52411;52.716;6.696;2022-09-02T15:37:17;26.30;50.70
65692;DHT22;52411;52.716;6.696;2022-09-02T15:39:43;26.20;50.70
65692;DHT22;52411;52.716;6.696;2022-09-02T15:42:09;26.20;50.80
65692;DHT22;52411;52.716;6.696;2022-09-02T15:44:34;26.20;50.60
65692;DHT22;52411;52.716;6.696;2022-09-02T15:47:00;26.20;50.60
65692;DHT22;52411;52.716;6.696;2022-09-02T15:49:26;26.10;50.50
65692;DHT22;52411;52.716;6.696;2022-09-02T15:51:52;26.00;49.90
65692;DHT22;52411;52.716;6.696;2022-09-02T15:54:21;25.90;50.60
65692;DHT22;52411;52.716;6.696;2022-09-02T15:56:47;25.90;51.40
65692;DHT22;52411;52.716;6.696;2022-09-02T15:59:15;25.90;51.10
65692;DHT22;52411;52.716;6.696;2022-09-02T16:01:44;25.90;51.00
65692;DHT22;52411;52.716;6.696;2022-09-02T16:04:11;26.00;51.00
65692;DHT22;52411;52.716;6.696;2022-09-02T16:06:40;26.50;50.90
65692;DHT22;52411;52.716;6.696;2022-09-02T16:09:10;26.90;50.20
65692;DHT22;52411;52.716;6.696;2022-09-02T16:11:38;26.90;49.30
65692;DHT22;52411;52.716;6.696;2022-09-02T16:14:04;26.80;49.80
65692;DHT22;52411;52.716;6.696;2022-09-02T16:16:30;26.90;49.90
65692;DHT22;52411;52.716;6.696;2022-09-02T16:18:56;27.60;49.50
65692;DHT22;52411;52.716;6.696;2022-09-02T16:21:22;28.40;48.50
65692;DHT22;52411;52.716;6.696;2022-09-02T16:23:49;29.10;47.60
65692;DHT22;52411;52.716;6.696;2022-09-02T16:26:29;29.30;47.40
65692;DHT22;52411;52.716;6.696;2022-09-02T16:29:00;29.50;46.40
65692;DHT22;52411;52.716;6.696;2022-09-02T16:31:28;29.70;47.00
65692;DHT22;52411;52.716;6.696;2022-09-02T16:33:59;30.10;47.10
65692;DHT22;52411;52.716;6.696;2022-09-02T16:36:27;30.50;46.10
65692;DHT22;52411;52.716;6.696;2022-09-02T16:38:53;30.30;46.70
65692;DHT22;52411;52.716;6.696;2022-09-02T16:41:28;30.00;47.20
65692;DHT22;52411;52.716;6.696;2022-09-02T16:43:56;29.80;46.60
65692;DHT22;52411;52.716;6.696;2022-09-02T16:46:22;30.00;46.50
65692;DHT22;52411;52.716;6.696;2022-09-02T16:48:48;30.20;46.70
65692;DHT22;52411;52.716;6.696;2022-09-02T16:51:14;30.40;46.50
65692;DHT22;52411;52.716;6.696;2022-09-02T16:53:41;30.70;46.00
65692;DHT22;52411;52.716;6.696;2022-09-02T16:56:11;30.90;45.90
65692;DHT22;52411;52.716;6.696;2022-09-02T16:58:37;31.10;45.20
65692;DHT22;52411;52.716;6.696;2022-09-02T17:01:06;31.20;45.20
65692;DHT22;52411;52.716;6.696;2022-09-02T17:03:37;31.10;44.40
65692;DHT22;52411;52.716;6.696;2022-09-02T17:06:03;31.00;44.70
65692;DHT22;52411;52.716;6.696;2022-09-02T17:08:28;31.00;44.60
65692;DHT22;52411;52.716;6.696;2022-09-02T17:13:47;30.40;42.70
65692;DHT22;52411;52.716;6.696;2022-09-02T17:16:13;29.80;45.30
65692;DHT22;52411;52.716;6.696;2022-09-02T17:18:39;29.30;45.70
65692;DHT22;52411;52.716;6.696;2022-09-02T17:23:42;28.50;45.60
65692;DHT22;52411;52.716;6.696;2022-09-02T17:26:08;28.30;46.70
65692;DHT22;52411;52.716;6.696;2022-09-02T17:28:33;28.20;46.30
65692;DHT22;52411;52.716;6.696;2022-09-02T17:30:59;27.90;46.20
65692;DHT22;52411;52.716;6.696;2022-09-02T17:33:25;27.60;46.40
65692;DHT22;52411;52.716;6.696;2022-09-02T17:35:57;27.00;46.50
65692;DHT22;52411;52.716;6.696;2022-09-02T17:38:23;26.50;46.90
65692;DHT22;52411;52.716;6.696;2022-09-02T17:40:48;26.20;47.50
65692;DHT22;52411;52.716;6.696;2022-09-02T17:43:33;25.70;47.80
65692;DHT22;52411;52.716;6.696;2022-09-02T17:46:09;25.30;48.30
65692;DHT22;52411;52.716;6.696;2022-09-02T17:48:35;25.00;48.90
65692;DHT22;52411;52.716;6.696;2022-09-02T17:51:00;24.80;48.90
65692;DHT22;52411;52.716;6.696;2022-09-02T17:53:27;24.60;49.20
65692;DHT22;52411;52.716;6.696;2022-09-02T17:56:12;24.30;49.50
65692;DHT22;52411;52.716;6.696;2022-09-02T18:01:37;23.80;50.90
65692;DHT22;52411;52.716;6.696;2022-09-02T18:04:49;23.60;50.70
65692;DHT22;52411;52.716;6.696;2022-09-02T18:10:03;23.20;52.50
65692;DHT22;52411;52.716;6.696;2022-09-02T18:12:29;23.00;51.70